sensor_id;sensor_type;location;lat;lon;timestamp;temperature;humidity
47540;DHT22;33280;52.152;21.052;2022-11-23T00:01:27;2.10;99.90
47540;DHT22;33280;52.152;21.052;2022-11-23T00:03:56;2.10;99.90
47540;DHT22;33280;52.152;21.052;2022-11-23T00:06:24;2.10;99.90
47540;DHT22;33280;52.152;21.052;2022-11-23T00:08:52;2.00;99.90
47540;DHT22;33280;52.152;21.052;2022-11-23T00:11:20;2.10;99.90
47540;DHT22;33280;52.152;21.052;2022-11-23T00:13:51;2.00;99.90
47540;DHT22;33280;52.152;21.052;2022-11-23T00:16:26;2.00;99.90
47540;DHT22;33280;52.152;21.052;2022-11-23T00:18:55;2.00;99.90
47540;DHT22;33280;52.152;21.052;2022-11-23T00:21:24;2.10;99.90
47540;DHT22;33280;52.152;21.052;2022-11-23T00:23:52;2.10;99.90
47540;DHT22;33280;52.152;21.052;2022-11-23T00:26:19;2.00;99.90
47540;DHT22;33280;52.152;21.052;2022-11-23T00:28:49;2.00;99.90
47540;DHT22;33280;52.152;21.052;2022-11-23T00:31:18;2.10;99.90
47540;DHT22;33280;52.152;21.052;2022-11-23T00:33:50;1.90;99.90
47540;DHT22;33280;52.152;21.052;2022-11-23T00:36:18;2.00;99.90
47540;DHT22;33280;52.152;21.052;2022-11-23T00:38:47;2.00;99.90
47540;DHT22;33280;52.152;21.052;2022-11-23T00:41:20;2.10;99.90
47540;DHT22;33280;52.152;21.052;2022-11-23T00:43:47;2.10;99.90
47540;DHT22;33280;52.152;21.052;2022-11-23T00:46:25;2.00;99.90
47540;DHT22;33280;52.152;21.052;2022-11-23T00:48:54;2.00;99.90
47540;DHT22;33280;52.152;21.052;2022-11-23T00:51:27;2.00;99.90
47540;DHT22;33280;52.152;21.052;2022-11-23T00:53:58;1.90;99.90
47540;DHT22;33280;52.152;21.052;2022-11-23T00:56:27;1.90;99.90
47540;DHT22;33280;52.152;21.052;2022-11-23T00:58:56;1.90;99.90
47540;DHT22;33280;52.152;21.052;2022-11-23T01:01:26;1.90;99.90
47540;DHT22;33280;52.152;21.052;2022-11-23T01:03:58;1.80;99.90
47540;DHT22;33280;52.152;21.052;2022-11-23T01:06:34;1.60;99.90
47540;DHT22;33280;52.152;21.052;2022-11-23T01:09:06;1.70;99.90
47540;DHT22;33280;52.152;21.052;2022-11-23T01:11:34;1.50;99.90
47540;DHT22;33280;52.152;21.052;2022-11-23T01:14:02;1.70;99.90
47540;DHT22;33280;52.152;21.052;2022-11-23T01:16:35;1.70;99.90
47540;DHT22;33280;52.152;21.052;2022-11-23T01:19:07;1.70;99.90
47540;DHT22;33280;52.152;21.052;2022-11-23T01:21:35;1.70;99.90
47540;DHT22;33280;52.152;21.052;2022-11-23T01:24:05;1.80;99.90
47540;DHT22;33280;52.152;21.052;2022-11-23T01:26:33;1.70;99.90
47540;DHT22;33280;52.152;21.052;2022-11-23T01:29:00;1.70;99.90
47540;DHT22;33280;52.152;21.052;2022-11-23T01:31:27;1.80;99.90
47540;DHT22;33280;52.152;21.052;2022-11-23T01:33:56;1.70;99.90
47540;DHT22;33280;52.152;21.052;2022-11-23T01:36:26;1.60;99.90
47540;DHT22;33280;52.152;21.052;2022-11-23T01:38:54;1.60;99.90
47540;DHT22;33280;52.152;21.052;2022-11-23T01:41:24;1.70;99.90
47540;DHT22;33280;52.152;21.052;2022-11-23T01:43:52;1.80;99.90
47540;DHT22;33280;52.152;21.052;2022-11-23T01:46:20;1.70;99.90
47540;DHT22;33280;52.152;21.052;2022-11-23T01:49:03;1.60;99.90
47540;DHT22;33280;52.152;21.052;2022-11-23T01:51:37;1.60;99.90
47540;DHT22;33280;52.152;21.052;2022-11-23T01:54:15;1.70;99.90
47540;DHT22;33280;52.152;21.052;2022-11-23T01:56:49;1.70;99.90
47540;DHT22;33280;52.152;21.052;2022-11-23T01:59:20;1.70;99.90
47540;DHT22;33280;52.152;21.052;2022-11-23T02:01:48;1.70;99.90
47540;DHT22;33280;52.152;21.052;2022-11-23T02:04:21;1.60;99.90
47540;DHT22;33280;52.152;21.052;2022-11-23T02:06:53;1.70;99.90
47540;DHT22;33280;52.152;21.052;2022-11-23T02:09:22;1.60;99.90
47540;DHT22;33280;52.152;21.052;2022-11-23T02:11:50;1.60;99.90
47540;DHT22;33280;52.152;21.052;2022-11-23T02:14:18;1.70;99.90
47540;DHT22;33280;52.152;21.052;2022-11-23T02:16:49;1.60;99.90
47540;DHT22;33280;52.152;21.052;2022-11-23T02:19:30;1.70;99.90
47540;DHT22;33280;52.152;21.052;2022-11-23T02:21:59;1.60;99.90
47540;DHT22;33280;52.152;21.052;2022-11-23T02:24:32;1.60;99.90
47540;DHT22;33280;52.152;21.052;2022-11-23T02:27:04;1.50;99.90
47540;DHT22;33280;52.152;21.052;2022-11-23T02:29:33;1.60;99.90
47540;DHT22;33280;52.152;21.052;2022-11-23T02:32:01;1.60;99.90
47540;DHT22;33280;52.152;21.052;2022-11-23T02:34:28;1.60;99.90
47540;DHT22;33280;52.152;21.052;2022-11-23T02:36:55;1.70;99.90
47540;DHT22;33280;52.152;21.052;2022-11-23T02:41:57;1.70;99.90
47540;DHT22;33280;52.152;21.052;2022-11-23T02:45:07;1.70;99.90
47540;DHT22;33280;52.152;21.052;2022-11-23T02:47:32;1.70;99.90
47540;DHT22;33280;52.152;21.052;2022-11-23T02:49:59;1.90;99.90
47540;DHT22;33280;52.152;21.052;2022-11-23T02:52:27;1.80;99.90
47540;DHT22;33280;52.152;21.052;2022-11-23T02:54:57;1.80;99.90
47540;DHT22;33280;52.152;21.052;2022-11-23T02:57:24;1.80;99.90
47540;DHT22;33280;52.152;21.052;2022-11-23T02:59:51;1.70;99.90
47540;DHT22;33280;52.152;21.052;2022-11-23T03:02:21;1.70;99.90
47540;DHT22;33280;52.152;21.052;2022-11-23T03:04:49;1.80;99.90
47540;DHT22;33280;52.152;21.052;2022-11-23T03:07:16;1.80;99.90
47540;DHT22;33280;52.152;21.052;2022-11-23T03:09:43;1.70;99.90
47540;DHT22;33280;52.152;21.052;2022-11-23T03:12:11;1.70;99.90
47540;DHT22;33280;52.152;21.052;2022-11-23T03:14:38;1.60;99.90
47540;DHT22;33280;52.152;21.052;2022-11-23T03:17:19;1.70;99.90
47540;DHT22;33280;52.152;21.052;2022-11-23T03:19:46;1.70;99.90
47540;DHT22;33280;52.152;21.052;2022-11-23T03:22:14;1.70;99.90
47540;DHT22;33280;52.152;21.052;2022-11-23T03:24:41;1.80;99.90
47540;DHT22;33280;52.152;21.052;2022-11-23T03:27:08;1.80;99.90
47540;DHT22;33280;52.152;21.052;2022-11-23T03:29:36;1.80;99.90
47540;DHT22;33280;52.152;21.052;2022-11-23T03:32:03;1.90;99.90
47540;DHT22;33280;52.152;21.052;2022-11-23T03:34:30;1.80;99.90
47540;DHT22;33280;52.152;21.052;2022-11-23T03:36:59;1.80;99.90
47540;DHT22;33280;52.152;21.052;2022-11-23T03:39:26;1.90;99.90
47540;DHT22;33280;52.152;21.052;2022-11-23T03:41:53;1.90;99.90
47540;DHT22;33280;52.152;21.052;2022-11-23T03:44:21;1.90;99.90
47540;DHT22;33280;52.152;21.052;2022-11-23T03:46:48;1.90;99.90
47540;DHT22;33280;52.152;21.052;2022-11-23T03:49:16;1.90;99.90
47540;DHT22;33280;52.152;21.052;2022-11-23T03:51:44;2.00;99.90
47540;DHT22;33280;52.152;21.052;2022-11-23T03:54:12;1.90;99.90
47540;DHT22;33280;52.152;21.052;2022-11-23T03:56:39;1.80;99.90
47540;DHT22;33280;52.152;21.052;2022-11-23T03:59:10;1.70;99.90
47540;DHT22;33280;52.152;21.052;2022-11-23T04:01:37;1.70;99.90
47540;DHT22;33280;52.152;21.052;2022-11-23T04:04:08;1.80;99.90
47540;DHT22;33280;52.152;21.052;2022-11-23T04:06:35;1.60;99.90
47540;DHT22;33280;52.152;21.052;2022-11-23T04:09:03;1.60;99.90
47540;DHT22;33280;52.152;21.052;2022-11-23T04:11:32;1.70;99.90
47540;DHT22;33280;52.152;21.052;2022-11-23T04:14:00;1.60;99.90
47540;DHT22;33280;52.152;21.052;2022-11-23T04:16:27;1.60;99.90
47540;DHT22;33280;52.152;21.052;2022-11-23T04:18:54;1.50;99.90
47540;DHT22;33280;52.152;21.052;2022-11-23T04:21:22;1.60;99.90
47540;DHT22;33280;52.152;21.052;2022-11-23T04:23:49;1.70;99.90
47540;DHT22;33280;52.152;21.052;2022-11-23T04:26:17;1.60;99.90
47540;DHT22;33280;52.152;21.052;2022-11-23T04:28:44;1.60;99.90
47540;DHT22;33280;52.152;21.052;2022-11-23T04:31:12;1.50;99.90
47540;DHT22;33280;52.152;21.052;2022-11-23T04:33:39;1.60;99.90
47540;DHT22;33280;52.152;21.052;2022-11-23T04:36:12;1.60;99.90
47540;DHT22;33280;52.152;21.052;2022-11-23T04:38:40;1.70;99.90
47540;DHT22;33280;52.152;21.052;2022-11-23T04:41:07;1.70;99.90
47540;DHT22;33280;52.152;21.052;2022-11-23T04:43:34;1.60;99.90
47540;DHT22;33280;52.152;21.052;2022-11-23T04:46:02;1.60;99.90
47540;DHT22;33280;52.152;21.052;2022-11-23T04:48:32;1.60;99.90
47540;DHT22;33280;52.152;21.052;2022-11-23T04:51:06;1.60;99.90
47540;DHT22;33280;52.152;21.052;2022-11-23T04:53:41;1.50;99.90
47540;DHT22;33280;52.152;21.052;2022-11-23T04:56:09;1.50;99.90
47540;DHT22;33280;52.152;21.052;2022-11-23T04:58:41;1.60;99.90
47540;DHT22;33280;52.152;21.052;2022-11-23T05:01:08;1.50;99.90
47540;DHT22;33280;52.152;21.052;2022-11-23T05:03:42;1.60;99.90
47540;DHT22;33280;52.152;21.052;2022-11-23T05:06:10;1.60;99.90
47540;DHT22;33280;52.152;21.052;2022-11-23T05:08:37;1.60;99.90
47540;DHT22;33280;52.152;21.052;2022-11-23T05:11:04;1.70;99.90
47540;DHT22;33280;52.152;21.052;2022-11-23T05:13:32;1.50;99.90
47540;DHT22;33280;52.152;21.052;2022-11-23T05:15:59;1.50;99.90
47540;DHT22;33280;52.152;21.052;2022-11-23T05:18:27;1.50;99.90
47540;DHT22;33280;52.152;21.052;2022-11-23T05:20:54;1.70;99.90
47540;DHT22;33280;52.152;21.052;2022-11-23T05:23:21;1.60;99.90
47540;DHT22;33280;52.152;21.052;2022-11-23T05:25:48;1.40;99.90
47540;DHT22;33280;52.152;21.052;2022-11-23T05:28:17;1.40;99.90
47540;DHT22;33280;52.152;21.052;2022-11-23T05:31:06;1.40;99.90
47540;DHT22;33280;52.152;21.052;2022-11-23T05:33:33;1.40;99.90
47540;DHT22;33280;52.152;21.052;2022-11-23T05:36:07;1.40;99.90
47540;DHT22;33280;52.152;21.052;2022-11-23T05:38:34;1.40;99.90
47540;DHT22;33280;52.152;21.052;2022-11-23T05:41:01;1.40;99.90
47540;DHT22;33280;52.152;21.052;2022-11-23T05:43:31;1.40;99.90
47540;DHT22;33280;52.152;21.052;2022-11-23T05:46:02;1.60;99.90
47540;DHT22;33280;52.152;21.052;2022-11-23T05:48:29;1.40;99.90
47540;DHT22;33280;52.152;21.052;2022-11-23T05:50:56;1.40;99.90
47540;DHT22;33280;52.152;21.052;2022-11-23T05:53:31;1.50;99.90
47540;DHT22;33280;52.152;21.052;2022-11-23T05:56:02;1.40;99.90
47540;DHT22;33280;52.152;21.052;2022-11-23T05:58:29;1.30;99.90
47540;DHT22;33280;52.152;21.052;2022-11-23T06:00:59;1.30;99.90
47540;DHT22;33280;52.152;21.052;2022-11-23T06:03:27;1.40;99.90
47540;DHT22;33280;52.152;21.052;2022-11-23T06:05:55;1.30;99.90
47540;DHT22;33280;52.152;21.052;2022-11-23T06:08:25;1.40;99.90
47540;DHT22;33280;52.152;21.052;2022-11-23T06:10:55;1.30;99.90
47540;DHT22;33280;52.152;21.052;2022-11-23T06:13:22;1.40;99.90
47540;DHT22;33280;52.152;21.052;2022-11-23T06:15:49;1.40;99.90
47540;DHT22;33280;52.152;21.052;2022-11-23T06:18:17;1.30;99.90
47540;DHT22;33280;52.152;21.052;2022-11-23T06:20:50;1.50;99.90
47540;DHT22;33280;52.152;21.052;2022-11-23T06:23:17;1.30;99.90
47540;DHT22;33280;52.152;21.052;2022-11-23T06:25:44;1.40;99.90
47540;DHT22;33280;52.152;21.052;2022-11-23T06:28:11;1.40;99.90
47540;DHT22;33280;52.152;21.052;2022-11-23T06:30:38;1.30;99.90
47540;DHT22;33280;52.152;21.052;2022-11-23T06:33:06;1.30;99.90
47540;DHT22;33280;52.152;21.052;2022-11-23T06:35:36;1.20;99.90
47540;DHT22;33280;52.152;21.052;2022-11-23T06:38:03;1.20;99.90
47540;DHT22;33280;52.152;21.052;2022-11-23T06:40:31;1.20;99.90
47540;DHT22;33280;52.152;21.052;2022-11-23T06:42:59;1.20;99.90
47540;DHT22;33280;52.152;21.052;2022-11-23T06:45:30;1.20;99.90
47540;DHT22;33280;52.152;21.052;2022-11-23T06:47:57;1.20;99.90
47540;DHT22;33280;52.152;21.052;2022-11-23T06:50:30;1.30;99.90
47540;DHT22;33280;52.152;21.052;2022-11-23T06:52:59;1.30;99.90
47540;DHT22;33280;52.152;21.052;2022-11-23T06:55:38;1.30;99.90
47540;DHT22;33280;52.152;21.052;2022-11-23T06:58:06;1.40;99.90
47540;DHT22;33280;52.152;21.052;2022-11-23T07:00:33;1.20;99.90
47540;DHT22;33280;52.152;21.052;2022-11-23T07:03:01;1.20;99.90
47540;DHT22;33280;52.152;21.052;2022-11-23T07:05:28;1.10;99.90
47540;DHT22;33280;52.152;21.052;2022-11-23T07:07:56;1.00;99.90
47540;DHT22;33280;52.152;21.052;2022-11-23T07:10:23;1.00;99.90
47540;DHT22;33280;52.152;21.052;2022-11-23T07:12:51;1.10;99.90
47540;DHT22;33280;52.152;21.052;2022-11-23T07:15:18;1.00;99.90
47540;DHT22;33280;52.152;21.052;2022-11-23T07:17:45;0.90;99.90
47540;DHT22;33280;52.152;21.052;2022-11-23T07:20:13;1.00;99.90
47540;DHT22;33280;52.152;21.052;2022-11-23T07:22:40;1.00;99.90
47540;DHT22;33280;52.152;21.052;2022-11-23T07:25:07;1.00;99.90
47540;DHT22;33280;52.152;21.052;2022-11-23T07:27:34;1.00;99.90
47540;DHT22;33280;52.152;21.052;2022-11-23T07:30:02;1.10;99.90
47540;DHT22;33280;52.152;21.052;2022-11-23T07:32:29;1.00;99.90
47540;DHT22;33280;52.152;21.052;2022-11-23T07:34:56;1.00;99.90
47540;DHT22;33280;52.152;21.052;2022-11-23T07:37:23;1.00;99.90
47540;DHT22;33280;52.152;21.052;2022-11-23T07:39:50;1.00;99.90
47540;DHT22;33280;52.152;21.052;2022-11-23T07:42:24;1.00;99.90
47540;DHT22;33280;52.152;21.052;2022-11-23T07:44:59;1.00;99.90
47540;DHT22;33280;52.152;21.052;2022-11-23T07:47:26;1.00;99.90
47540;DHT22;33280;52.152;21.052;2022-11-23T07:49:53;1.10;99.90
47540;DHT22;33280;52.152;21.052;2022-11-23T07:52:20;1.10;99.90
47540;DHT22;33280;52.152;21.052;2022-11-23T07:54:47;1.00;99.90
47540;DHT22;33280;52.152;21.052;2022-11-23T07:57:14;1.00;99.90
47540;DHT22;33280;52.152;21.052;2022-11-23T07:59:41;1.10;99.90
47540;DHT22;33280;52.152;21.052;2022-11-23T08:02:33;1.20;99.90
47540;DHT22;33280;52.152;21.052;2022-11-23T08:05:01;1.20;99.90
47540;DHT22;33280;52.152;21.052;2022-11-23T08:07:28;1.30;99.90
47540;DHT22;33280;52.152;21.052;2022-11-23T08:09:56;1.20;99.90
47540;DHT22;33280;52.152;21.052;2022-11-23T08:12:23;1.30;99.90
47540;DHT22;33280;52.152;21.052;2022-11-23T08:14:50;1.10;99.90
47540;DHT22;33280;52.152;21.052;2022-11-23T08:17:17;1.00;99.90
47540;DHT22;33280;52.152;21.052;2022-11-23T08:19:44;1.00;99.90
47540;DHT22;33280;52.152;21.052;2022-11-23T08:22:11;1.10;99.90
47540;DHT22;33280;52.152;21.052;2022-11-23T08:24:41;1.00;99.90
47540;DHT22;33280;52.152;21.052;2022-11-23T08:27:09;1.00;99.90
47540;DHT22;33280;52.152;21.052;2022-11-23T08:29:36;0.90;99.90
47540;DHT22;33280;52.152;21.052;2022-11-23T08:32:03;0.90;99.90
47540;DHT22;33280;52.152;21.052;2022-11-23T08:34:30;0.80;99.90
47540;DHT22;33280;52.152;21.052;2022-11-23T08:36:58;0.90;99.90
47540;DHT22;33280;52.152;21.052;2022-11-23T08:39:24;0.80;99.90
47540;DHT22;33280;52.152;21.052;2022-11-23T08:41:52;0.90;99.90
47540;DHT22;33280;52.152;21.052;2022-11-23T08:44:19;1.00;99.90
47540;DHT22;33280;52.152;21.052;2022-11-23T08:46:46;0.90;99.90
47540;DHT22;33280;52.152;21.052;2022-11-23T08:49:12;0.90;99.90
47540;DHT22;33280;52.152;21.052;2022-11-23T08:51:40;1.00;99.90
47540;DHT22;33280;52.152;21.052;2022-11-23T08:54:14;1.00;99.90
47540;DHT22;33280;52.152;21.052;2022-11-23T08:56:41;1.10;99.90
47540;DHT22;33280;52.152;21.052;2022-11-23T08:59:08;1.10;99.90
47540;DHT22;33280;52.152;21.052;2022-11-23T09:01:36;0.90;99.90
47540;DHT22;33280;52.152;21.052;2022-11-23T09:04:03;1.00;99.90
47540;DHT22;33280;52.152;21.052;2022-11-23T09:06:34;1.00;99.90
47540;DHT22;33280;52.152;21.052;2022-11-23T09:09:02;1.00;99.90
47540;DHT22;33280;52.152;21.052;2022-11-23T09:11:29;1.10;99.90
47540;DHT22;33280;52.152;21.052;2022-11-23T09:14:03;1.20;99.90
47540;DHT22;33280;52.152;21.052;2022-11-23T09:16:33;1.20;99.90
47540;DHT22;33280;52.152;21.052;2022-11-23T09:19:03;1.30;99.90
47540;DHT22;33280;52.152;21.052;2022-11-23T09:21:32;1.20;99.90
47540;DHT22;33280;52.152;21.052;2022-11-23T09:24:01;1.30;99.90
47540;DHT22;33280;52.152;21.052;2022-11-23T09:26:28;1.20;99.90
47540;DHT22;33280;52.152;21.052;2022-11-23T09:28:57;1.10;99.90
47540;DHT22;33280;52.152;21.052;2022-11-23T09:31:24;1.10;99.90
47540;DHT22;33280;52.152;21.052;2022-11-23T09:33:54;1.20;99.90
47540;DHT22;33280;52.152;21.052;2022-11-23T09:36:21;1.20;99.90
47540;DHT22;33280;52.152;21.052;2022-11-23T09:38:50;1.20;99.90
47540;DHT22;33280;52.152;21.052;2022-11-23T09:41:42;1.10;99.90
47540;DHT22;33280;52.152;21.052;2022-11-23T09:44:16;1.10;99.90
47540;DHT22;33280;52.152;21.052;2022-11-23T09:47:02;1.10;99.90
47540;DHT22;33280;52.152;21.052;2022-11-23T09:52:35;1.10;99.90
47540;DHT22;33280;52.152;21.052;2022-11-23T09:55:17;1.10;99.90
47540;DHT22;33280;52.152;21.052;2022-11-23T09:57:48;1.20;99.90
47540;DHT22;33280;52.152;21.052;2022-11-23T10:00:21;1.20;99.90
47540;DHT22;33280;52.152;21.052;2022-11-23T10:02:50;1.20;99.90
47540;DHT22;33280;52.152;21.052;2022-11-23T10:05:20;1.20;99.90
47540;DHT22;33280;52.152;21.052;2022-11-23T10:13:37;1.40;99.90
47540;DHT22;33280;52.152;21.052;2022-11-23T10:21:49;1.30;99.90
47540;DHT22;33280;52.152;21.052;2022-11-23T10:24:29;1.20;99.90
47540;DHT22;33280;52.152;21.052;2022-11-23T10:26:57;1.20;99.90
47540;DHT22;33280;52.152;21.052;2022-11-23T10:29:37;1.30;99.90
47540;DHT22;33280;52.152;21.052;2022-11-23T10:32:35;1.30;99.90
47540;DHT22;33280;52.152;21.052;2022-11-23T10:35:15;1.20;99.90
47540;DHT22;33280;52.152;21.052;2022-11-23T10:37:43;1.30;99.90
47540;DHT22;33280;52.152;21.052;2022-11-23T10:40:16;1.20;99.90
47540;DHT22;33280;52.152;21.052;2022-11-23T10:42:49;1.20;99.90
47540;DHT22;33280;52.152;21.052;2022-11-23T10:45:26;1.20;99.90
47540;DHT22;33280;52.152;21.052;2022-11-23T10:47:58;1.30;99.90
47540;DHT22;33280;52.152;21.052;2022-11-23T10:50:39;1.10;99.90
47540;DHT22;33280;52.152;21.052;2022-11-23T10:53:21;1.10;99.90
47540;DHT22;33280;52.152;21.052;2022-11-23T10:55:53;1.20;99.90
47540;DHT22;33280;52.152;21.052;2022-11-23T10:58:31;1.20;99.90
47540;DHT22;33280;52.152;21.052;2022-11-23T11:01:11;1.30;99.90
47540;DHT22;33280;52.152;21.052;2022-11-23T11:03:38;1.30;99.90
47540;DHT22;33280;52.152;21.052;2022-11-23T11:06:06;1.30;99.90
47540;DHT22;33280;52.152;21.052;2022-11-23T11:08:55;1.40;99.90
47540;DHT22;33280;52.152;21.052;2022-11-23T11:11:31;1.40;99.90
47540;DHT22;33280;52.152;21.052;2022-11-23T11:14:15;1.50;99.90
47540;DHT22;33280;52.152;21.052;2022-11-23T11:16:52;1.50;99.90
47540;DHT22;33280;52.152;21.052;2022-11-23T11:19:32;1.60;99.90
47540;DHT22;33280;52.152;21.052;2022-11-23T11:22:01;1.50;99.90
47540;DHT22;33280;52.152;21.052;2022-11-23T11:24:42;1.40;99.90
47540;DHT22;33280;52.152;21.052;2022-11-23T11:27:16;1.40;99.90
47540;DHT22;33280;52.152;21.052;2022-11-23T11:29:48;1.30;99.90
47540;DHT22;33280;52.152;21.052;2022-11-23T11:32:22;1.40;99.90
47540;DHT22;33280;52.152;21.052;2022-11-23T11:35:07;1.40;99.90
47540;DHT22;33280;52.152;21.052;2022-11-23T11:37:45;1.60;99.90
47540;DHT22;33280;52.152;21.052;2022-11-23T11:40:32;1.50;99.90
47540;DHT22;33280;52.152;21.052;2022-11-23T11:43:27;1.50;99.90
47540;DHT22;33280;52.152;21.052;2022-11-23T11:46:14;1.50;99.90
47540;DHT22;33280;52.152;21.052;2022-11-23T11:52:13;1.50;99.90
47540;DHT22;33280;52.152;21.052;2022-11-23T11:58:02;1.50;99.90
47540;DHT22;33280;52.152;21.052;2022-11-23T12:00:33;1.60;99.90
47540;DHT22;33280;52.152;21.052;2022-11-23T12:05:49;1.40;99.90
47540;DHT22;33280;52.152;21.052;2022-11-23T12:13:20;1.30;99.90
47540;DHT22;33280;52.152;21.052;2022-11-23T12:16:15;1.20;99.90
47540;DHT22;33280;52.152;21.052;2022-11-23T12:38:37;1.50;99.90
47540;DHT22;33280;52.152;21.052;2022-11-23T12:49:27;1.40;99.90
47540;DHT22;33280;52.152;21.052;2022-11-23T12:54:56;1.40;99.90
47540;DHT22;33280;52.152;21.052;2022-11-23T12:57:31;1.30;99.90
47540;DHT22;33280;52.152;21.052;2022-11-23T13:00:13;1.40;99.90
47540;DHT22;33280;52.152;21.052;2022-11-23T13:08:48;1.50;99.90
47540;DHT22;33280;52.152;21.052;2022-11-23T13:11:36;1.60;99.90
47540;DHT22;33280;52.152;21.052;2022-11-23T13:23:08;1.50;99.90
47540;DHT22;33280;52.152;21.052;2022-11-23T13:25:36;1.50;99.90
47540;DHT22;33280;52.152;21.052;2022-11-23T13:28:30;1.40;99.90
47540;DHT22;33280;52.152;21.052;2022-11-23T13:33:43;1.40;99.90
47540;DHT22;33280;52.152;21.052;2022-11-23T13:42:20;1.30;99.90
47540;DHT22;33280;52.152;21.052;2022-11-23T13:45:20;1.40;99.90
47540;DHT22;33280;52.152;21.052;2022-11-23T13:50:54;1.20;99.90
47540;DHT22;33280;52.152;21.052;2022-11-23T13:53:31;1.20;99.90
47540;DHT22;33280;52.152;21.052;2022-11-23T13:56:30;1.30;99.90
47540;DHT22;33280;52.152;21.052;2022-11-23T14:04:42;1.20;99.90
47540;DHT22;33280;52.152;21.052;2022-11-23T14:07:24;1.30;99.90
47540;DHT22;33280;52.152;21.052;2022-11-23T14:09:56;1.20;99.90
47540;DHT22;33280;52.152;21.052;2022-11-23T14:12:41;1.20;99.90
47540;DHT22;33280;52.152;21.052;2022-11-23T14:15:25;1.10;99.90
47540;DHT22;33280;52.152;21.052;2022-11-23T14:20:38;1.00;99.90
47540;DHT22;33280;52.152;21.052;2022-11-23T14:26:26;1.00;99.90
47540;DHT22;33280;52.152;21.052;2022-11-23T14:29:06;1.10;99.90
47540;DHT22;33280;52.152;21.052;2022-11-23T14:35:15;1.20;99.90
47540;DHT22;33280;52.152;21.052;2022-11-23T14:42:59;1.10;99.90
47540;DHT22;33280;52.152;21.052;2022-11-23T14:45:28;1.00;99.90
47540;DHT22;33280;52.152;21.052;2022-11-23T14:48:18;1.00;99.90
47540;DHT22;33280;52.152;21.052;2022-11-23T14:51:11;0.90;99.90
47540;DHT22;33280;52.152;21.052;2022-11-23T14:53:42;0.80;99.90
47540;DHT22;33280;52.152;21.052;2022-11-23T14:56:33;0.80;99.90
47540;DHT22;33280;52.152;21.052;2022-11-23T15:01:51;0.80;99.90
47540;DHT22;33280;52.152;21.052;2022-11-23T15:04:31;0.80;99.90
47540;DHT22;33280;52.152;21.052;2022-11-23T15:09:59;0.70;99.90
47540;DHT22;33280;52.152;21.052;2022-11-23T15:12:43;0.70;99.90
47540;DHT22;33280;52.152;21.052;2022-11-23T15:15:30;0.70;99.90
47540;DHT22;33280;52.152;21.052;2022-11-23T15:17:59;0.70;99.90
47540;DHT22;33280;52.152;21.052;2022-11-23T15:20:47;0.70;99.90
47540;DHT22;33280;52.152;21.052;2022-11-23T15:23:23;0.70;99.90
47540;DHT22;33280;52.152;21.052;2022-11-23T15:25:52;0.60;99.90
47540;DHT22;33280;52.152;21.052;2022-11-23T15:28:25;0.60;99.90
47540;DHT22;33280;52.152;21.052;2022-11-23T15:30:52;0.70;99.90
47540;DHT22;33280;52.152;21.052;2022-11-23T15:33:27;0.70;99.90
47540;DHT22;33280;52.152;21.052;2022-11-23T15:35:54;0.70;99.90
47540;DHT22;33280;52.152;21.052;2022-11-23T15:38:24;0.70;99.90
47540;DHT22;33280;52.152;21.052;2022-11-23T15:40:52;0.70;99.90
47540;DHT22;33280;52.152;21.052;2022-11-23T15:43:20;0.70;99.90
47540;DHT22;33280;52.152;21.052;2022-11-23T15:48:20;0.70;99.90
47540;DHT22;33280;52.152;21.052;2022-11-23T15:50:55;0.70;99.90
47540;DHT22;33280;52.152;21.052;2022-11-23T15:53:46;0.70;99.90
47540;DHT22;33280;52.152;21.052;2022-11-23T15:58:51;0.70;99.90
47540;DHT22;33280;52.152;21.052;2022-11-23T16:01:20;0.70;99.90
47540;DHT22;33280;52.152;21.052;2022-11-23T16:03:58;0.70;99.90
47540;DHT22;33280;52.152;21.052;2022-11-23T16:14:56;0.70;99.90
47540;DHT22;33280;52.152;21.052;2022-11-23T16:17:26;0.60;99.90
47540;DHT22;33280;52.152;21.052;2022-11-23T16:19:59;0.60;99.90
47540;DHT22;33280;52.152;21.052;2022-11-23T16:22:36;0.60;99.90
47540;DHT22;33280;52.152;21.052;2022-11-23T16:25:31;0.60;99.90
47540;DHT22;33280;52.152;21.052;2022-11-23T16:28:16;0.60;99.90
47540;DHT22;33280;52.152;21.052;2022-11-23T16:30:50;0.60;99.90
47540;DHT22;33280;52.152;21.052;2022-11-23T16:33:19;0.60;99.90
47540;DHT22;33280;52.152;21.052;2022-11-23T16:35:46;0.60;99.90
47540;DHT22;33280;52.152;21.052;2022-11-23T16:38:13;0.70;99.90
47540;DHT22;33280;52.152;21.052;2022-11-23T16:40:41;0.60;99.90
47540;DHT22;33280;52.152;21.052;2022-11-23T16:43:10;0.70;99.90
47540;DHT22;33280;52.152;21.052;2022-11-23T16:45:44;0.60;99.90
47540;DHT22;33280;52.152;21.052;2022-11-23T16:50:55;0.50;99.90
47540;DHT22;33280;52.152;21.052;2022-11-23T16:53:23;0.40;99.90
47540;DHT22;33280;52.152;21.052;2022-11-23T16:55:53;0.40;99.90
47540;DHT22;33280;52.152;21.052;2022-11-23T16:58:21;0.60;99.90
47540;DHT22;33280;52.152;21.052;2022-11-23T17:00:48;0.50;99.90
47540;DHT22;33280;52.152;21.052;2022-11-23T17:03:17;0.50;99.90
47540;DHT22;33280;52.152;21.052;2022-11-23T17:05:44;0.40;99.90
47540;DHT22;33280;52.152;21.052;2022-11-23T17:08:11;0.40;99.90
47540;DHT22;33280;52.152;21.052;2022-11-23T17:10:44;0.30;99.90
47540;DHT22;33280;52.152;21.052;2022-11-23T17:13:22;0.40;99.90
47540;DHT22;33280;52.152;21.052;2022-11-23T17:15:50;0.40;99.90
47540;DHT22;33280;52.152;21.052;2022-11-23T17:18:17;0.40;99.90
47540;DHT22;33280;52.152;21.052;2022-11-23T17:20:45;0.40;99.90
47540;DHT22;33280;52.152;21.052;2022-11-23T17:23:12;0.40;99.90
47540;DHT22;33280;52.152;21.052;2022-11-23T17:25:39;0.40;99.90
47540;DHT22;33280;52.152;21.052;2022-11-23T17:28:16;0.30;99.90
47540;DHT22;33280;52.152;21.052;2022-11-23T17:30:52;0.30;99.90
47540;DHT22;33280;52.152;21.052;2022-11-23T17:33:19;0.40;99.90
47540;DHT22;33280;52.152;21.052;2022-11-23T17:35:46;0.40;99.90
47540;DHT22;33280;52.152;21.052;2022-11-23T17:38:14;0.30;99.90
47540;DHT22;33280;52.152;21.052;2022-11-23T17:40:42;0.20;99.90
47540;DHT22;33280;52.152;21.052;2022-11-23T17:43:14;0.20;99.90
47540;DHT22;33280;52.152;21.052;2022-11-23T17:45:42;0.30;99.90
47540;DHT22;33280;52.152;21.052;2022-11-23T17:48:11;0.30;99.90
47540;DHT22;33280;52.152;21.052;2022-11-23T17:50:38;0.30;99.90
47540;DHT22;33280;52.152;21.052;2022-11-23T17:53:05;0.30;99.90
47540;DHT22;33280;52.152;21.052;2022-11-23T17:55:32;0.30;99.90
47540;DHT22;33280;52.152;21.052;2022-11-23T17:57:59;0.30;99.90
47540;DHT22;33280;52.152;21.052;2022-11-23T18:00:30;0.30;99.90
47540;DHT22;33280;52.152;21.052;2022-11-23T18:02:57;0.30;99.90
47540;DHT22;33280;52.152;21.052;2022-11-23T18:05:24;0.30;99.90
47540;DHT22;33280;52.152;21.052;2022-11-23T18:07:51;0.30;99.90